createdAt,value
2023-11-30T00:00:36.008Z,-0.31
2023-11-30T00:03:02.680Z,-0.30
2023-11-30T00:05:29.328Z,-0.30
2023-11-30T00:07:55.862Z,-0.32
2023-11-30T00:10:22.349Z,-0.32
2023-11-30T00:12:49.269Z,-0.30
2023-11-30T00:15:15.857Z,-0.29
2023-11-30T00:17:42.355Z,-0.26
2023-11-30T00:20:09.688Z,-0.26
2023-11-30T00:22:36.352Z,-0.26
2023-11-30T00:25:02.841Z,-0.26
2023-11-30T00:27:29.371Z,-0.25
2023-11-30T00:29:56.122Z,-0.25
2023-11-30T00:32:22.630Z,-0.27
2023-11-30T00:34:49.113Z,-0.27
2023-11-30T00:37:15.602Z,-0.29
2023-11-30T00:39:42.076Z,-0.30
2023-11-30T00:42:08.744Z,-0.32
2023-11-30T00:44:35.754Z,-0.29
2023-11-30T00:47:02.489Z,-0.28
2023-11-30T00:49:28.941Z,-0.27
2023-11-30T00:51:55.378Z,-0.26
2023-11-30T00:54:22.002Z,-0.26
2023-11-30T00:56:48.492Z,-0.28
2023-11-30T00:59:14.922Z,-0.28
2023-11-30T01:01:41.584Z,-0.29
2023-11-30T01:04:08.184Z,-0.28
2023-11-30T01:06:36.677Z,-0.29
2023-11-30T01:09:04.137Z,-0.30
2023-11-30T01:11:30.649Z,-0.31
2023-11-30T01:13:57.141Z,-0.33
2023-11-30T01:16:24.317Z,-0.34
2023-11-30T01:18:51.142Z,-0.36
2023-11-30T01:21:17.899Z,-0.33
2023-11-30T01:23:58.054Z,-0.37
2023-11-30T01:26:24.835Z,-0.37
2023-11-30T01:28:57.265Z,-0.38
2023-11-30T01:31:26.671Z,-0.39
2023-11-30T01:33:53.255Z,-0.40
2023-11-30T01:36:20.281Z,-0.42
2023-11-30T01:38:48.032Z,-0.43
2023-11-30T01:41:14.823Z,-0.43
2023-11-30T01:43:42.320Z,-0.44
2023-11-30T01:46:10.103Z,-0.45
2023-11-30T01:48:38.947Z,-0.46
2023-11-30T01:51:08.629Z,-0.46
2023-11-30T01:53:40.007Z,-0.46
2023-11-30T01:56:09.885Z,-0.47
2023-11-30T01:58:39.376Z,-0.45
2023-11-30T02:01:06.972Z,-0.45
2023-11-30T02:03:38.398Z,-0.45
2023-11-30T02:06:07.508Z,-0.43
2023-11-30T02:08:36.152Z,-0.41
2023-11-30T02:11:27.189Z,-0.42
2023-11-30T02:13:55.256Z,-0.41
2023-11-30T02:16:22.782Z,-0.39
2023-11-30T02:18:49.562Z,-0.38
2023-11-30T02:21:16.352Z,-0.38
2023-11-30T02:23:42.890Z,-0.37
2023-11-30T02:26:14.313Z,-0.40
2023-11-30T02:28:40.918Z,-0.40
2023-11-30T02:31:09.954Z,-0.40
2023-11-30T02:33:36.786Z,-0.40
2023-11-30T02:36:04.700Z,-0.39
2023-11-30T02:38:34.183Z,-0.39
2023-11-30T02:41:25.650Z,-0.40
2023-11-30T02:43:50.029Z,-0.40
2023-11-30T02:46:19.926Z,-0.40
2023-11-30T02:48:47.605Z,-0.40
2023-11-30T02:51:17.280Z,-0.40
2023-11-30T02:53:47.653Z,-0.42
2023-11-30T02:56:14.195Z,-0.41
2023-11-30T02:58:40.795Z,-0.42
2023-11-30T03:01:07.673Z,-0.43
2023-11-30T03:03:34.427Z,-0.41
2023-11-30T03:06:00.990Z,-0.42
2023-11-30T03:08:27.559Z,-0.44
2023-11-30T03:10:57.068Z,-0.44
2023-11-30T03:13:23.568Z,-0.45
2023-11-30T03:15:50.068Z,-0.43
2023-11-30T03:18:16.821Z,-0.46
2023-11-30T03:20:43.524Z,-0.46
2023-11-30T03:23:10.029Z,-0.48
2023-11-30T03:25:43.109Z,-0.47
2023-11-30T03:28:12.263Z,-0.50
2023-11-30T03:30:40.175Z,-0.51
2023-11-30T03:33:06.843Z,-0.49
2023-11-30T03:35:33.496Z,-0.48
2023-11-30T03:38:00.228Z,-0.46
2023-11-30T03:40:26.837Z,-0.45
2023-11-30T03:42:53.458Z,-0.45
2023-11-30T03:45:22.254Z,-0.46
2023-11-30T03:47:48.846Z,-0.45
2023-11-30T03:50:15.405Z,-0.45
2023-11-30T03:52:42.695Z,-0.46
2023-11-30T03:55:09.741Z,-0.45
2023-11-30T03:57:36.246Z,-0.44
2023-11-30T04:00:04.145Z,-0.43
2023-11-30T04:02:31.101Z,-0.44
2023-11-30T04:05:00.529Z,-0.41
2023-11-30T04:07:30.610Z,-0.41
2023-11-30T04:09:57.186Z,-0.43
2023-11-30T04:12:23.760Z,-0.43
2023-11-30T04:14:50.345Z,-0.44
2023-11-30T04:17:16.886Z,-0.43
2023-11-30T04:19:43.527Z,-0.45
2023-11-30T04:22:11.537Z,-0.42
2023-11-30T04:24:38.105Z,-0.42
2023-11-30T04:27:07.330Z,-0.42
2023-11-30T04:29:36.258Z,-0.43
2023-11-30T04:32:06.587Z,-0.42
2023-11-30T04:34:34.645Z,-0.42
2023-11-30T04:37:01.141Z,-0.41
2023-11-30T04:39:27.754Z,-0.41
2023-11-30T04:41:54.280Z,-0.40
2023-11-30T04:44:23.888Z,-0.39
2023-11-30T04:46:50.611Z,-0.38
2023-11-30T04:49:17.141Z,-0.34
2023-11-30T04:51:43.680Z,-0.33
2023-11-30T04:54:10.356Z,-0.33
2023-11-30T04:56:36.999Z,-0.33
2023-11-30T04:59:04.253Z,-0.32
2023-11-30T05:01:32.057Z,-0.30
2023-11-30T05:03:59.792Z,-0.28
2023-11-30T05:06:26.480Z,-0.29
2023-11-30T05:08:52.947Z,-0.29
2023-11-30T05:11:19.555Z,-0.28
2023-11-30T05:13:46.108Z,-0.26
2023-11-30T05:16:13.571Z,-0.25
2023-11-30T05:18:40.796Z,-0.24
2023-11-30T05:21:07.848Z,-0.27
2023-11-30T05:23:34.540Z,-0.25
2023-11-30T05:26:04.336Z,-0.23
2023-11-30T05:28:33.464Z,-0.19
2023-11-30T05:31:00.927Z,-0.19
2023-11-30T05:33:31.039Z,-0.20
2023-11-30T05:35:58.671Z,-0.18
2023-11-30T05:38:25.435Z,-0.16
2023-11-30T05:40:51.962Z,-0.16
2023-11-30T05:43:18.388Z,-0.15
2023-11-30T05:45:45.460Z,-0.13
2023-11-30T05:48:15.173Z,-0.14
2023-11-30T05:50:41.904Z,-0.14
2023-11-30T05:53:08.433Z,-0.12
2023-11-30T05:55:34.982Z,-0.13
2023-11-30T05:58:01.523Z,-0.14
2023-11-30T06:00:28.178Z,-0.13
2023-11-30T06:02:55.351Z,-0.13
2023-11-30T06:05:21.823Z,-0.11
2023-11-30T06:07:49.396Z,-0.12
2023-11-30T06:10:16.324Z,-0.10
2023-11-30T06:12:48.747Z,-0.10
2023-11-30T06:15:15.527Z,-0.10
2023-11-30T06:17:42.187Z,-0.09
2023-11-30T06:20:11.764Z,-0.10
2023-11-30T06:22:38.384Z,-0.09
2023-11-30T06:25:06.632Z,-0.09
2023-11-30T06:27:33.326Z,-0.07
2023-11-30T06:29:59.891Z,-0.08
2023-11-30T06:32:26.428Z,-0.09
2023-11-30T06:34:53.049Z,-0.06
2023-11-30T06:37:19.598Z,-0.06
2023-11-30T06:39:46.105Z,-0.07
2023-11-30T06:42:12.689Z,-0.09
2023-11-30T06:44:43.764Z,-0.10
2023-11-30T06:47:10.474Z,-0.07
2023-11-30T06:49:36.985Z,-0.07
2023-11-30T06:52:05.928Z,-0.05
2023-11-30T06:54:33.254Z,-0.04
2023-11-30T06:57:09.014Z,-0.03
2023-11-30T06:59:35.642Z,-0.05
2023-11-30T07:02:05.129Z,-0.06
2023-11-30T07:04:34.230Z,-0.04
2023-11-30T07:07:00.764Z,-0.04
2023-11-30T07:09:27.335Z,-0.05
2023-11-30T07:11:55.206Z,-0.06
2023-11-30T07:14:22.308Z,-0.09
2023-11-30T07:16:48.899Z,-0.10
2023-11-30T07:19:18.685Z,-0.12
2023-11-30T07:21:45.199Z,-0.13
2023-11-30T07:24:13.310Z,-0.13
2023-11-30T07:26:40.135Z,-0.12
2023-11-30T07:31:52.170Z,-0.12
2023-11-30T07:34:19.016Z,-0.11
2023-11-30T07:36:45.757Z,-0.12
2023-11-30T07:39:12.587Z,-0.11
2023-11-30T07:41:43.807Z,-0.14
2023-11-30T07:44:10.643Z,-0.15
2023-11-30T07:46:37.355Z,-0.14
2023-11-30T07:49:05.375Z,-0.14
2023-11-30T07:51:31.888Z,-0.15
2023-11-30T07:53:58.513Z,-0.15
2023-11-30T07:56:24.969Z,-0.16
2023-11-30T07:58:51.546Z,-0.17
2023-11-30T08:01:18.160Z,-0.19
2023-11-30T08:03:44.782Z,-0.20
2023-11-30T08:06:11.507Z,-0.23
2023-11-30T08:08:38.109Z,-0.24
2023-11-30T08:11:05.796Z,-0.26
2023-11-30T08:13:34.396Z,-0.27
2023-11-30T08:16:06.589Z,-0.30
2023-11-30T08:18:33.399Z,-0.29
2023-11-30T08:21:03.452Z,-0.27
2023-11-30T08:23:30.180Z,-0.29
2023-11-30T08:25:57.434Z,-0.28
2023-11-30T08:28:24.387Z,-0.28
2023-11-30T08:30:50.947Z,-0.26
2023-11-30T08:33:17.534Z,-0.25
2023-11-30T08:35:44.077Z,-0.26
2023-11-30T08:38:10.988Z,-0.25
2023-11-30T08:40:37.480Z,-0.25
2023-11-30T08:43:04.581Z,-0.27
2023-11-30T08:45:31.253Z,-0.28
2023-11-30T08:47:57.793Z,-0.28
2023-11-30T08:50:24.308Z,-0.24
2023-11-30T08:52:50.829Z,-0.18
2023-11-30T08:55:17.351Z,0.03
2023-11-30T08:57:45.093Z,0.11
2023-11-30T09:00:15.292Z,0.14
2023-11-30T09:02:43.479Z,0.19
2023-11-30T09:05:13.208Z,0.29
2023-11-30T09:07:39.792Z,0.37
2023-11-30T09:10:07.871Z,0.43
2023-11-30T09:12:36.888Z,0.47
2023-11-30T09:15:09.822Z,0.51
2023-11-30T09:17:36.948Z,0.57
2023-11-30T09:20:08.763Z,0.67
2023-11-30T09:22:36.555Z,0.81
2023-11-30T09:25:11.551Z,1.22
2023-11-30T09:27:38.034Z,1.86
2023-11-30T09:30:08.589Z,2.22
2023-11-30T09:32:38.165Z,2.97
2023-11-30T09:35:08.407Z,3.90
2023-11-30T09:37:38.034Z,4.45
2023-11-30T09:40:09.981Z,4.91
2023-11-30T09:42:36.565Z,5.25
2023-11-30T09:45:06.505Z,5.52
2023-11-30T09:47:33.115Z,6.11
2023-11-30T09:50:01.810Z,6.51
2023-11-30T09:52:29.620Z,6.03
2023-11-30T09:55:03.220Z,5.19
2023-11-30T09:57:29.908Z,5.65
2023-11-30T09:59:56.438Z,6.08
2023-11-30T10:02:26.814Z,6.82
2023-11-30T10:04:53.889Z,7.11
2023-11-30T10:07:21.807Z,7.90
2023-11-30T10:09:48.333Z,8.68
2023-11-30T10:12:16.061Z,9.24
2023-11-30T10:14:42.629Z,9.09
2023-11-30T10:17:13.440Z,9.30
2023-11-30T10:19:40.340Z,9.61
2023-11-30T10:22:06.906Z,9.99
2023-11-30T10:24:33.454Z,10.07
2023-11-30T10:27:06.278Z,10.33
2023-11-30T10:29:38.197Z,10.44
2023-11-30T10:32:07.258Z,10.53
2023-11-30T10:34:50.221Z,10.95
2023-11-30T10:37:27.113Z,11.32
2023-11-30T10:40:01.950Z,11.39
2023-11-30T10:42:33.151Z,11.59
2023-11-30T10:45:04.031Z,11.24
2023-11-30T10:47:31.114Z,10.24
2023-11-30T10:50:01.550Z,9.89
2023-11-30T10:52:29.583Z,9.72
2023-11-30T10:55:15.430Z,8.13
2023-11-30T10:57:43.798Z,6.86
2023-11-30T11:00:15.693Z,6.30
2023-11-30T11:02:48.398Z,5.81
2023-11-30T11:05:19.507Z,5.28
2023-11-30T11:07:53.164Z,4.87
2023-11-30T11:10:36.245Z,5.67
2023-11-30T11:13:03.141Z,6.11
2023-11-30T11:15:30.381Z,6.75
2023-11-30T11:18:05.036Z,6.52
2023-11-30T11:20:33.378Z,6.07
2023-11-30T11:23:09.989Z,5.90
2023-11-30T11:25:47.473Z,5.83
2023-11-30T11:28:18.508Z,6.01
2023-11-30T11:30:49.609Z,5.85
2023-11-30T11:33:19.095Z,5.59
2023-11-30T11:35:47.005Z,5.36
2023-11-30T11:38:13.922Z,4.76
2023-11-30T11:40:41.216Z,4.37
2023-11-30T11:43:08.425Z,4.08
2023-11-30T11:45:36.825Z,3.86
2023-11-30T11:48:13.710Z,3.72
2023-11-30T11:50:40.384Z,3.56
2023-11-30T11:53:07.282Z,3.33
2023-11-30T11:55:33.999Z,3.27
2023-11-30T11:58:02.706Z,3.22
2023-11-30T12:00:29.311Z,3.12
2023-11-30T12:03:09.065Z,2.97
2023-11-30T12:05:46.863Z,2.91
2023-11-30T12:08:13.360Z,2.91
2023-11-30T12:10:42.255Z,2.90
2023-11-30T12:13:11.768Z,2.92
2023-11-30T12:15:38.440Z,2.94
2023-11-30T12:18:08.421Z,3.00
2023-11-30T12:20:35.616Z,3.03
2023-11-30T12:23:04.287Z,3.14
2023-11-30T12:25:30.886Z,3.08
2023-11-30T12:27:57.420Z,3.02
2023-11-30T12:30:26.691Z,2.95
2023-11-30T12:32:53.513Z,2.92
2023-11-30T12:35:20.369Z,2.86
2023-11-30T12:37:47.591Z,2.82
2023-11-30T12:40:14.896Z,2.76
2023-11-30T12:42:45.456Z,2.77
2023-11-30T12:45:13.278Z,2.89
2023-11-30T12:47:41.709Z,2.82
2023-11-30T12:50:10.074Z,2.78
2023-11-30T12:52:36.615Z,2.83
2023-11-30T12:55:03.458Z,2.86
2023-11-30T12:57:30.065Z,2.92
2023-11-30T12:59:56.550Z,2.88
2023-11-30T13:02:23.578Z,2.84
2023-11-30T13:04:51.265Z,2.74
2023-11-30T13:07:18.167Z,2.71
2023-11-30T13:09:45.032Z,2.82
2023-11-30T13:12:11.984Z,2.74
2023-11-30T13:14:38.494Z,2.71
2023-11-30T13:17:05.917Z,2.71
2023-11-30T13:19:33.731Z,2.77
2023-11-30T13:22:00.951Z,2.72
2023-11-30T13:24:27.830Z,2.74
2023-11-30T13:26:57.062Z,2.72
2023-11-30T13:29:23.619Z,2.75
2023-11-30T13:31:50.170Z,2.68
2023-11-30T13:34:16.783Z,2.69
2023-11-30T13:36:45.554Z,2.70
2023-11-30T13:39:12.197Z,2.76
2023-11-30T13:41:38.723Z,2.75
2023-11-30T13:44:06.008Z,2.81
2023-11-30T13:46:32.805Z,2.72
2023-11-30T13:49:01.837Z,2.57
2023-11-30T13:51:28.604Z,2.48
2023-11-30T13:53:56.011Z,2.41
2023-11-30T13:56:22.785Z,2.44
2023-11-30T13:58:50.585Z,2.44
2023-11-30T14:01:19.447Z,2.49
2023-11-30T14:03:46.132Z,2.52
2023-11-30T14:06:14.421Z,2.50
2023-11-30T14:08:41.498Z,2.38
2023-11-30T14:11:12.890Z,2.36
2023-11-30T14:13:40.156Z,2.36
2023-11-30T14:16:07.540Z,2.35
2023-11-30T14:18:37.043Z,2.34
2023-11-30T14:21:03.815Z,2.27
2023-11-30T14:23:30.347Z,2.23
2023-11-30T14:25:57.793Z,2.23
2023-11-30T14:28:26.094Z,2.23
2023-11-30T14:30:53.006Z,2.28
2023-11-30T14:33:20.110Z,2.17
2023-11-30T14:35:46.836Z,2.15
2023-11-30T14:38:13.393Z,2.15
2023-11-30T14:40:39.998Z,2.15
2023-11-30T14:43:07.567Z,2.14
2023-11-30T14:45:34.116Z,2.13
2023-11-30T14:48:02.051Z,2.14
2023-11-30T14:50:28.727Z,2.16
2023-11-30T14:52:55.412Z,2.14
2023-11-30T14:55:21.974Z,2.11
2023-11-30T14:57:48.569Z,2.05
2023-11-30T15:00:18.213Z,2.00
2023-11-30T15:02:45.724Z,2.03
2023-11-30T15:05:15.320Z,2.06
2023-11-30T15:07:42.824Z,2.01
2023-11-30T15:10:11.981Z,1.92
2023-11-30T15:12:41.393Z,1.84
2023-11-30T15:15:14.172Z,1.81
2023-11-30T15:17:43.317Z,1.84
2023-11-30T15:20:11.816Z,1.82
2023-11-30T15:22:39.409Z,1.68
2023-11-30T15:25:17.911Z,1.64
2023-11-30T15:27:45.302Z,1.60
2023-11-30T15:30:12.518Z,1.61
2023-11-30T15:32:39.571Z,1.54
2023-11-30T15:35:11.772Z,1.53
2023-11-30T15:37:38.430Z,1.62
2023-11-30T15:40:11.551Z,1.67
2023-11-30T15:42:39.643Z,1.70
2023-11-30T15:45:11.805Z,1.64
2023-11-30T15:47:41.401Z,1.66
2023-11-30T15:50:08.378Z,1.62
2023-11-30T15:52:34.966Z,1.61
2023-11-30T15:55:02.676Z,1.61
2023-11-30T15:57:29.346Z,1.50
2023-11-30T15:59:55.910Z,1.52
2023-11-30T16:02:22.489Z,1.51
2023-11-30T16:04:49.124Z,1.48
2023-11-30T16:07:15.664Z,1.42
2023-11-30T16:09:42.345Z,1.42
2023-11-30T16:12:09.127Z,1.50
2023-11-30T16:14:37.090Z,1.48
2023-11-30T16:17:03.816Z,1.50
2023-11-30T16:19:30.392Z,1.49
2023-11-30T16:21:58.338Z,1.52
2023-11-30T16:24:25.300Z,1.46
2023-11-30T16:26:55.738Z,1.42
2023-11-30T16:29:22.883Z,1.34
2023-11-30T16:31:50.343Z,1.34
2023-11-30T16:34:20.599Z,1.23
2023-11-30T16:36:51.540Z,1.19
2023-11-30T16:39:18.296Z,1.20
2023-11-30T16:41:44.923Z,1.21
2023-11-30T16:44:12.646Z,1.28
2023-11-30T16:46:39.934Z,1.23
2023-11-30T16:49:12.405Z,1.22
2023-11-30T16:51:41.642Z,1.20
2023-11-30T16:54:14.698Z,1.20
2023-11-30T16:56:41.904Z,1.15
2023-11-30T16:59:08.461Z,1.09
2023-11-30T17:01:37.619Z,1.10
2023-11-30T17:04:05.443Z,1.08
2023-11-30T17:06:32.290Z,1.03
2023-11-30T17:09:00.253Z,0.97
2023-11-30T17:12:24.164Z,0.92
2023-11-30T17:14:50.767Z,0.88
2023-11-30T17:17:17.315Z,0.75
2023-11-30T17:19:43.839Z,0.66
2023-11-30T17:22:11.815Z,0.62
2023-11-30T17:24:38.453Z,0.63
2023-11-30T17:27:04.994Z,0.75
2023-11-30T17:29:31.992Z,0.64
2023-11-30T17:32:01.520Z,0.65
2023-11-30T17:34:28.623Z,0.70
2023-11-30T17:36:55.240Z,0.69
2023-11-30T17:39:21.728Z,0.71
2023-11-30T17:41:48.249Z,0.68
2023-11-30T17:44:14.808Z,0.63
2023-11-30T17:46:43.283Z,0.61
2023-11-30T17:49:09.990Z,0.65
2023-11-30T17:51:36.618Z,0.61
2023-11-30T17:54:03.274Z,0.60
2023-11-30T17:56:29.775Z,0.56
2023-11-30T17:59:01.288Z,0.46
2023-11-30T18:01:31.507Z,0.45
2023-11-30T18:03:58.236Z,0.54
2023-11-30T18:06:26.449Z,0.59
2023-11-30T18:08:53.586Z,0.62
2023-11-30T18:11:26.462Z,0.63
2023-11-30T18:13:53.040Z,0.59
2023-11-30T18:16:19.631Z,0.62
2023-11-30T18:18:46.741Z,0.65
2023-11-30T18:21:14.757Z,0.60
2023-11-30T18:23:41.361Z,0.62
2023-11-30T18:26:07.901Z,0.62
2023-11-30T18:28:36.790Z,0.61
2023-11-30T18:31:16.224Z,0.55
2023-11-30T18:33:47.442Z,0.54
2023-11-30T18:36:16.928Z,0.46
2023-11-30T18:38:50.641Z,0.40
2023-11-30T18:41:19.683Z,0.24
2023-11-30T18:43:46.195Z,0.12
2023-11-30T18:46:14.228Z,0.04
2023-11-30T18:48:40.792Z,-0.02
2023-11-30T18:51:07.786Z,0.02
2023-11-30T18:53:35.603Z,0.05
2023-11-30T18:56:04.256Z,0.04
2023-11-30T18:58:30.983Z,0.14
2023-11-30T19:00:57.562Z,0.23
2023-11-30T19:03:24.430Z,0.22
2023-11-30T19:05:51.083Z,0.20
2023-11-30T19:08:17.855Z,0.19
2023-11-30T19:10:44.507Z,0.15
2023-11-30T19:13:11.717Z,0.14
2023-11-30T19:15:49.378Z,0.09
2023-11-30T19:18:16.679Z,0.11
2023-11-30T19:20:43.345Z,0.18
2023-11-30T19:23:18.864Z,0.13
2023-11-30T19:25:46.537Z,0.12
2023-11-30T19:28:16.053Z,0.08
2023-11-30T19:30:51.454Z,0.09
2023-11-30T19:33:18.031Z,0.12
2023-11-30T19:35:45.081Z,0.15
2023-11-30T19:38:28.551Z,0.16
2023-11-30T19:41:20.578Z,0.19
2023-11-30T19:43:47.217Z,0.14
2023-11-30T19:46:17.097Z,0.10
2023-11-30T19:48:45.750Z,0.05
2023-11-30T19:51:21.738Z,0.03
2023-11-30T19:53:52.545Z,-0.04
2023-11-30T19:56:21.391Z,-0.07
2023-11-30T19:58:51.268Z,-0.20
2023-11-30T20:01:27.150Z,-0.24
2023-11-30T20:04:02.261Z,-0.22
2023-11-30T20:06:28.923Z,-0.20
2023-11-30T20:08:57.112Z,-0.20
2023-11-30T20:11:26.774Z,-0.17
2023-11-30T20:13:58.566Z,-0.16
2023-11-30T20:16:28.674Z,-0.18
2023-11-30T20:18:56.780Z,-0.16
2023-11-30T20:21:23.620Z,-0.19
2023-11-30T20:23:51.626Z,-0.18
2023-11-30T20:26:19.436Z,-0.17
2023-11-30T20:28:46.996Z,-0.25
2023-11-30T20:31:15.210Z,-0.34
2023-11-30T20:33:42.418Z,-0.40
2023-11-30T20:36:09.489Z,-0.31
2023-11-30T20:38:39.072Z,-0.29
2023-11-30T20:41:07.251Z,-0.32
2023-11-30T20:43:33.971Z,-0.40
2023-11-30T20:46:00.804Z,-0.46
2023-11-30T20:48:53.642Z,-0.56
2023-11-30T20:51:21.257Z,-0.59
2023-11-30T20:53:48.069Z,-0.60
2023-11-30T20:56:14.980Z,-0.65
2023-11-30T20:58:44.475Z,-0.66
2023-11-30T21:01:11.630Z,-0.69
2023-11-30T21:03:38.967Z,-0.70
2023-11-30T21:06:06.590Z,-0.61
2023-11-30T21:08:34.114Z,-0.59
2023-11-30T21:11:02.017Z,-0.54
2023-11-30T21:13:30.973Z,-0.51
2023-11-30T21:15:57.934Z,-0.60
2023-11-30T21:18:24.773Z,-0.61
2023-11-30T21:20:52.509Z,-0.65
2023-11-30T21:23:19.111Z,-0.79
2023-11-30T21:25:48.766Z,-0.82
2023-11-30T21:28:16.182Z,-0.84
2023-11-30T21:30:42.801Z,-0.84
2023-11-30T21:33:09.839Z,-0.84
2023-11-30T21:35:36.405Z,-0.78
2023-11-30T21:38:02.905Z,-0.80
2023-11-30T21:40:44.038Z,-0.88
2023-11-30T21:43:14.130Z,-0.81
2023-11-30T21:45:40.719Z,-0.74
2023-11-30T21:48:07.518Z,-0.70
2023-11-30T21:50:34.722Z,-0.70
2023-11-30T21:53:01.450Z,-0.69
2023-11-30T21:55:28.125Z,-0.75
2023-11-30T21:57:54.780Z,-0.78
2023-11-30T22:00:21.836Z,-0.77
2023-11-30T22:02:48.612Z,-0.78
2023-11-30T22:05:23.761Z,-0.80
2023-11-30T22:07:56.857Z,-0.84
2023-11-30T22:10:23.505Z,-0.87
2023-11-30T22:12:50.386Z,-0.91
2023-11-30T22:15:17.090Z,-0.92
2023-11-30T22:17:43.818Z,-0.92
2023-11-30T22:20:11.087Z,-0.92
2023-11-30T22:22:37.604Z,-1.00
2023-11-30T22:25:04.518Z,-0.99
2023-11-30T22:27:31.988Z,-1.09
2023-11-30T22:29:58.629Z,-1.11
2023-11-30T22:32:27.631Z,-1.11
2023-11-30T22:34:54.190Z,-1.09
2023-11-30T22:37:21.266Z,-1.03
2023-11-30T22:39:48.360Z,-1.06
2023-11-30T22:42:15.847Z,-1.02
2023-11-30T22:44:42.402Z,-0.96
2023-11-30T22:47:09.019Z,-0.95
2023-11-30T22:49:35.714Z,-0.96
2023-11-30T22:52:02.827Z,-0.93
2023-11-30T22:54:29.566Z,-0.96
2023-11-30T22:56:56.190Z,-0.98
2023-11-30T22:59:22.974Z,-0.98
2023-11-30T23:01:50.507Z,-0.97
2023-11-30T23:04:17.401Z,-0.98
2023-11-30T23:06:44.171Z,-0.99
2023-11-30T23:09:10.809Z,-0.99
2023-11-30T23:11:37.371Z,-0.94
2023-11-30T23:14:04.007Z,-0.87
2023-11-30T23:16:30.791Z,-0.85
2023-11-30T23:18:57.495Z,-0.89
2023-11-30T23:21:23.996Z,-0.89
2023-11-30T23:23:50.504Z,-0.88
2023-11-30T23:26:17.860Z,-0.89
2023-11-30T23:28:44.428Z,-0.85
2023-11-30T23:31:11.040Z,-0.81
2023-11-30T23:33:37.680Z,-0.80
2023-11-30T23:36:04.710Z,-0.85
2023-11-30T23:38:31.332Z,-0.83
2023-11-30T23:40:57.889Z,-0.84
2023-11-30T23:43:24.401Z,-0.83
2023-11-30T23:45:51.310Z,-0.82
2023-11-30T23:48:17.856Z,-0.80
2023-11-30T23:50:44.608Z,-0.79
2023-11-30T23:53:11.242Z,-0.79
2023-11-30T23:55:37.826Z,-0.79
2023-11-30T23:58:04.445Z,-0.75
